Time;durP1;ratioP1;P1;durP2;ratioP2;P2;SDS_P1;SDS_P2;PMS_P1;PMS_P2;Temp;Humidity;BMP_temperature;BMP_pressure;BME280_temperature;BME280_humidity;BME280_pressure;Samples;Min_cycle;Max_cycle;Signal;HPM_P1;HPM_P2
2023/05/14 00:02:16;;;;;;;4.80;3.97;;;;;;;9.54;100.00;95845.69;5054625;28;20032;-70
2023/05/14 00:04:42;;;;;;;4.45;4.15;;;;;;;9.57;100.00;95837.56;5055547;28;20020;-70
2023/05/14 00:07:07;;;;;;;4.30;3.88;;;;;;;9.54;100.00;95834.34;5056656;28;20063;-69
2023/05/14 00:09:34;;;;;;;4.55;3.80;;;;;;;9.52;100.00;95831.00;5056883;28;20432;-69
2023/05/14 00:11:59;;;;;;;4.50;4.10;;;;;;;9.54;100.00;95829.94;5058397;28;20111;-69
2023/05/14 00:14:25;;;;;;;3.88;3.65;;;;;;;9.53;100.00;95833.53;5057575;28;20037;-68
2023/05/14 00:16:50;;;;;;;4.65;3.80;;;;;;;9.52;100.00;95826.59;5058251;28;20052;-69
2023/05/14 00:19:16;;;;;;;3.90;3.65;;;;;;;9.53;100.00;95833.53;5057663;28;20033;-69
2023/05/14 00:21:41;;;;;;;5.20;3.67;;;;;;;9.54;100.00;95826.47;5056926;28;20028;-70
2023/05/14 00:24:07;;;;;;;5.53;3.90;;;;;;;9.55;100.00;95830.75;5057666;28;20283;-69
2023/05/14 00:26:32;;;;;;;3.95;3.65;;;;;;;9.55;100.00;95828.13;5058013;28;20021;-69
2023/05/14 00:28:57;;;;;;;4.75;4.05;;;;;;;9.54;100.00;95823.81;5057511;28;20021;-69
2023/05/14 00:31:23;;;;;;;5.07;4.05;;;;;;;9.54;100.00;95821.19;5056740;28;20385;-70
2023/05/14 00:33:48;;;;;;;5.13;4.65;;;;;;;9.53;100.00;95822.16;5051465;28;20021;-69
2023/05/14 00:36:13;;;;;;;4.65;4.28;;;;;;;9.48;100.00;95814.66;5057955;28;20024;-69
2023/05/14 00:38:39;;;;;;;5.05;4.20;;;;;;;9.45;100.00;95813.16;5052902;28;20025;-69
2023/05/14 00:41:04;;;;;;;5.28;4.28;;;;;;;9.44;100.00;95811.50;5057206;28;20028;-70
2023/05/14 00:43:32;;;;;;;5.20;4.70;;;;;;;9.41;100.00;95809.13;5052805;28;20036;-69
2023/05/14 00:45:58;;;;;;;6.82;5.70;;;;;;;9.43;100.00;95808.97;5043365;28;20009;-69
2023/05/14 00:48:23;;;;;;;7.03;5.60;;;;;;;9.50;100.00;95812.75;5052768;28;20023;-69
2023/05/14 00:50:50;;;;;;;8.75;6.60;;;;;;;9.53;100.00;95811.66;5073164;28;20009;-69
2023/05/14 00:53:16;;;;;;;9.15;7.30;;;;;;;9.52;100.00;95815.25;5056783;28;20021;-69
2023/05/14 00:55:42;;;;;;;7.95;6.85;;;;;;;9.52;100.00;95807.38;5065988;28;20028;-69
2023/05/14 00:58:12;;;;;;;11.07;8.02;;;;;;;9.51;100.00;95805.69;5059892;28;20074;-69
2023/05/14 01:00:39;;;;;;;13.25;11.95;;;;;;;9.52;100.00;95802.94;5052358;28;20068;-69
2023/05/14 01:03:06;;;;;;;9.48;6.38;;;;;;;9.53;100.00;95806.41;5053908;28;20552;-69
2023/05/14 01:05:59;;;;;;;6.75;6.18;;;;;;;9.51;100.00;95805.69;5056847;28;20084;-69
2023/05/14 01:08:56;;;;;;;8.90;7.90;;;;;;;9.55;100.00;95807.09;5041530;28;20037;-69
2023/05/14 01:11:29;;;;;;;9.45;7.82;;;;;;;9.55;100.00;95801.84;5055109;28;20098;-69
2023/05/14 01:13:57;;;;;;;7.55;5.07;;;;;;;9.54;100.00;95800.19;5052550;28;20046;-69
2023/05/14 01:16:27;;;;;;;4.50;4.20;;;;;;;9.58;100.00;95801.56;5055741;28;20040;-69
2023/05/14 01:18:54;;;;;;;4.90;4.43;;;;;;;9.64;100.00;95797.56;5055762;28;20393;-69
2023/05/14 01:21:39;;;;;;;4.70;4.35;;;;;;;9.72;100.00;95797.72;5047003;28;20032;-70
2023/05/14 01:24:05;;;;;;;3.50;3.30;;;;;;;9.59;100.00;95805.84;5056635;28;20033;-70
2023/05/14 01:26:30;;;;;;;3.10;2.90;;;;;;;9.55;100.00;95796.56;5057145;28;20021;-69
2023/05/14 01:29:06;;;;;;;2.65;2.45;;;;;;;9.48;100.00;95798.09;5056767;28;20032;-69
2023/05/14 01:31:35;;;;;;;5.00;2.38;;;;;;;9.43;100.00;95798.47;5044002;28;20085;-69
2023/05/14 01:34:03;;;;;;;3.75;2.20;;;;;;;9.39;100.00;95799.72;5056867;28;20025;-70
2023/05/14 01:36:29;;;;;;;3.13;2.13;;;;;;;9.36;100.00;95802.59;5053733;28;20078;-69
2023/05/14 01:38:56;;;;;;;2.20;2.10;;;;;;;9.31;100.00;95793.31;5056193;28;20041;-69
2023/05/14 01:41:24;;;;;;;2.67;2.45;;;;;;;9.34;100.00;95794.84;5056567;28;20053;-69
2023/05/14 01:43:50;;;;;;;2.47;2.38;;;;;;;9.33;100.00;95801.06;5046919;28;20038;-69
2023/05/14 01:46:18;;;;;;;2.38;2.28;;;;;;;9.30;100.00;95796.06;5052558;28;20031;-69
2023/05/14 01:48:44;;;;;;;2.63;1.98;;;;;;;9.29;100.00;95803.13;5056001;28;20068;-69
2023/05/14 01:51:09;;;;;;;3.33;2.17;;;;;;;9.26;100.00;95799.94;5056618;28;20021;-69
2023/05/14 01:53:35;;;;;;;2.35;2.00;;;;;;;9.22;100.00;95798.53;5050902;28;20017;-69
2023/05/14 01:56:00;;;;;;;3.63;1.92;;;;;;;9.20;100.00;95797.84;5054330;28;20107;-69
2023/05/14 01:58:26;;;;;;;3.08;2.50;;;;;;;9.21;100.00;95802.13;5051585;28;20055;-69
2023/05/14 02:00:51;;;;;;;1.70;1.63;;;;;;;9.22;100.00;95801.16;5056093;28;20492;-69
2023/05/14 02:03:16;;;;;;;2.08;1.98;;;;;;;9.21;100.00;95799.50;5054819;28;20114;-69
2023/05/14 02:05:42;;;;;;;2.80;2.17;;;;;;;9.20;100.00;95800.47;5054961;28;20036;-69
2023/05/14 02:08:07;;;;;;;2.33;2.00;;;;;;;9.19;100.00;95804.06;5055230;28;20021;-69
2023/05/14 02:10:33;;;;;;;6.10;2.00;;;;;;;9.17;100.00;95802.38;5055399;28;20112;-69
2023/05/14 02:12:58;;;;;;;2.22;2.03;;;;;;;9.14;100.00;95796.56;5054510;28;20025;-69
2023/05/14 02:15:23;;;;;;;2.20;2.10;;;;;;;9.16;100.00;95800.69;5055160;28;20934;-69
2023/05/14 02:17:49;;;;;;;2.28;2.13;;;;;;;9.16;100.00;95800.69;5056168;28;20103;-69
2023/05/14 02:20:14;;;;;;;2.35;2.20;;;;;;;9.20;100.00;95803.91;5055957;28;20485;-69
2023/05/14 02:22:44;;;;;;;3.22;2.20;;;;;;;9.20;100.00;95803.09;5055505;28;20048;-69
2023/05/14 02:25:10;;;;;;;4.70;2.28;;;;;;;9.25;100.00;95800.91;5055561;28;20360;-69
2023/05/14 02:27:35;;;;;;;2.50;1.83;;;;;;;9.23;100.00;95802.81;5052893;28;20021;-69
2023/05/14 02:30:01;;;;;;;5.50;2.25;;;;;;;9.24;100.00;95807.09;5053524;28;20028;-69
2023/05/14 02:32:27;;;;;;;2.63;2.42;;;;;;;9.22;100.00;95803.78;5055489;28;20608;-69
2023/05/14 02:34:52;;;;;;;2.95;2.70;;;;;;;9.22;100.00;95796.72;5054207;28;20052;-69
2023/05/14 02:37:18;;;;;;;3.13;2.92;;;;;;;9.19;100.00;95801.44;5055674;28;20543;-70
2023/05/14 02:39:43;;;;;;;4.95;3.03;;;;;;;9.19;100.00;95799.63;5054868;28;20520;-69
2023/05/14 02:42:09;;;;;;;4.15;3.05;;;;;;;9.35;100.00;95798.31;5055494;28;20521;-70
2023/05/14 02:44:34;;;;;;;2.88;2.50;;;;;;;9.36;100.00;95798.16;5041009;28;20394;-70
2023/05/14 02:46:59;;;;;;;4.35;2.80;;;;;;;9.37;100.00;95797.19;5050923;28;20112;-70
2023/05/14 02:49:25;;;;;;;4.95;2.35;;;;;;;9.38;100.00;95800.66;5056440;28;20058;-70
2023/05/14 02:51:50;;;;;;;2.10;2.00;;;;;;;9.30;100.00;95789.03;5039758;28;20017;-70
2023/05/14 02:54:16;;;;;;;2.85;2.20;;;;;;;9.40;100.00;95791.72;5042364;28;20026;-70
2023/05/14 02:56:41;;;;;;;2.30;2.20;;;;;;;9.36;100.00;95798.16;5036567;28;20013;-70
2023/05/14 02:59:06;;;;;;;4.50;2.50;;;;;;;9.43;100.00;95793.22;5051185;28;20255;-70
2023/05/14 03:01:32;;;;;;;2.47;2.38;;;;;;;9.42;100.00;95800.28;5054489;28;20059;-70
2023/05/14 03:03:57;;;;;;;3.05;2.20;;;;;;;9.42;100.00;95794.19;5054634;28;20078;-70
2023/05/14 03:06:23;;;;;;;2.03;1.92;;;;;;;9.43;100.00;95795.84;5054052;28;20025;-70
2023/05/14 03:08:48;;;;;;;3.10;2.03;;;;;;;9.46;100.00;95795.56;5054893;28;20028;-70
2023/05/14 03:11:13;;;;;;;2.15;2.05;;;;;;;9.43;100.00;95795.84;5053168;28;20017;-70
2023/05/14 03:13:39;;;;;;;2.78;2.30;;;;;;;9.40;100.00;95789.06;5052984;28;20054;-70
2023/05/14 03:16:04;;;;;;;2.55;2.35;;;;;;;9.39;100.00;95794.44;5051276;28;20025;-70
2023/05/14 03:18:32;;;;;;;2.50;2.22;;;;;;;9.30;100.00;95796.06;5051263;28;20029;-70
2023/05/14 03:20:57;;;;;;;2.53;2.33;;;;;;;9.25;100.00;95787.75;5054295;28;20532;-70
2023/05/14 03:23:23;;;;;;;2.15;2.05;;;;;;;9.27;100.00;95789.28;5054998;28;20033;-70
2023/05/14 03:25:48;;;;;;;2.85;2.30;;;;;;;9.29;100.00;95786.53;5050972;28;20024;-70
2023/05/14 03:28:13;;;;;;;2.42;2.22;;;;;;;9.26;100.00;95794.66;5054665;28;20085;-70
2023/05/14 03:30:39;;;;;;;5.00;2.42;;;;;;;9.26;100.00;95798.13;5051338;28;20481;-71
2023/05/14 03:33:05;;;;;;;3.75;2.20;;;;;;;9.27;100.00;95791.09;5054399;28;20393;-70
2023/05/14 03:35:30;;;;;;;2.35;2.25;;;;;;;9.27;100.00;95794.53;5054051;28;20036;-70
2023/05/14 03:37:58;;;;;;;2.95;2.45;;;;;;;9.27;100.00;95793.72;5052941;28;20058;-70
2023/05/14 03:40:23;;;;;;;4.85;2.20;;;;;;;9.27;100.00;95791.91;5053290;28;20037;-70
2023/05/14 03:42:49;;;;;;;2.22;2.08;;;;;;;9.30;100.00;95793.44;5061760;28;20366;-70
2023/05/14 03:45:15;;;;;;;3.08;2.05;;;;;;;9.29;100.00;95794.41;5060656;28;20024;-71
2023/05/14 03:47:40;;;;;;;2.22;2.08;;;;;;;9.30;100.00;95801.31;5049879;28;20032;-70
2023/05/14 03:50:07;;;;;;;2.60;2.40;;;;;;;9.31;100.00;95800.34;5054902;28;20423;-70
2023/05/14 03:52:32;;;;;;;4.97;2.60;;;;;;;9.30;100.00;95806.56;5054277;28;20021;-70
2023/05/14 03:54:57;;;;;;;4.15;3.10;;;;;;;9.30;100.00;95803.94;5053738;28;20027;-70
2023/05/14 03:57:23;;;;;;;2.83;2.50;;;;;;;9.29;100.00;95805.75;5053059;28;20108;-70
2023/05/14 03:59:51;;;;;;;2.13;1.92;;;;;;;9.29;100.00;95811.00;5052782;28;20013;-70
2023/05/14 04:02:16;;;;;;;2.20;2.10;;;;;;;9.28;100.00;95806.72;5053934;28;20032;-70
2023/05/14 04:04:42;;;;;;;2.15;2.05;;;;;;;9.27;100.00;95806.84;5053856;28;20017;-70
2023/05/14 04:07:07;;;;;;;2.13;2.03;;;;;;;9.26;100.00;95806.00;5052567;28;20104;-70
2023/05/14 04:09:33;;;;;;;4.40;3.20;;;;;;;9.26;100.00;95802.56;5052889;28;20047;-70
2023/05/14 04:11:58;;;;;;;3.13;2.90;;;;;;;9.25;100.00;95808.78;5049517;28;20069;-70
2023/05/14 04:14:24;;;;;;;2.55;2.40;;;;;;;9.25;100.00;95806.16;5050771;28;20033;-70
2023/05/14 04:16:49;;;;;;;2.50;2.30;;;;;;;9.22;100.00;95804.59;5054088;28;20465;-69
2023/05/14 04:19:15;;;;;;;6.28;2.40;;;;;;;9.22;100.00;95809.03;5054249;28;20025;-70
2023/05/14 04:21:40;;;;;;;5.80;2.50;;;;;;;9.20;100.00;95805.72;5053980;28;20072;-70
2023/05/14 04:24:06;;;;;;;4.40;2.35;;;;;;;9.15;100.00;95812.16;5054458;28;20021;-69
2023/05/14 04:26:31;;;;;;;2.20;2.08;;;;;;;9.12;100.00;95804.56;5054245;28;20028;-70
2023/05/14 04:29:01;;;;;;;2.35;2.15;;;;;;;9.10;100.00;95806.47;5054060;28;20021;-70
2023/05/14 04:31:27;;;;;;;1.92;1.83;;;;;;;9.06;100.00;95807.69;5053656;28;20028;-70
2023/05/14 04:33:52;;;;;;;2.22;2.10;;;;;;;9.03;100.00;95807.97;5053902;28;20478;-70
2023/05/14 04:36:17;;;;;;;6.88;3.15;;;;;;;8.99;100.00;95814.44;5049693;28;20095;-70
2023/05/14 04:38:43;;;;;;;4.68;2.50;;;;;;;8.96;100.00;95812.09;5053504;28;20424;-70
2023/05/14 04:41:08;;;;;;;2.55;2.08;;;;;;;8.97;100.00;95817.19;5055074;28;20446;-70
2023/05/14 04:43:34;;;;;;;2.30;2.20;;;;;;;9.01;100.00;95826.47;5067233;28;20025;-70
2023/05/14 04:45:59;;;;;;;3.13;2.20;;;;;;;9.04;100.00;95828.00;5052488;28;20049;-70
2023/05/14 04:48:25;;;;;;;2.00;1.90;;;;;;;9.06;100.00;95836.59;5051617;28;20044;-70
2023/05/14 04:50:51;;;;;;;2.45;2.03;;;;;;;9.07;100.00;95835.63;5055694;28;20500;-70
2023/05/14 04:53:16;;;;;;;2.47;2.30;;;;;;;9.10;100.00;95835.38;5057304;28;20105;-70
2023/05/14 04:55:41;;;;;;;3.47;3.17;;;;;;;9.16;100.00;95837.47;5057671;28;20477;-70
2023/05/14 04:58:07;;;;;;;4.22;2.50;;;;;;;9.22;100.00;95833.50;5046980;28;20025;-70
2023/05/14 05:00:33;;;;;;;2.53;2.40;;;;;;;9.30;100.00;95843.34;5057227;28;20064;-70
2023/05/14 05:02:58;;;;;;;5.65;2.17;;;;;;;9.33;100.00;95850.97;5057085;28;20052;-70
2023/05/14 05:05:23;;;;;;;2.40;2.30;;;;;;;9.39;100.00;95855.69;5056484;28;20386;-70
2023/05/14 05:07:49;;;;;;;1.98;1.88;;;;;;;9.37;100.00;95855.00;5057162;28;20051;-70
2023/05/14 05:10:14;;;;;;;3.60;1.95;;;;;;;9.34;100.00;95855.28;5057354;28;20451;-70
2023/05/14 05:12:40;;;;;;;4.85;1.90;;;;;;;9.33;100.00;95856.22;5056419;28;20545;-70
2023/05/14 05:15:06;;;;;;;5.45;2.15;;;;;;;9.33;100.00;95858.88;5056288;28;20048;-70
2023/05/14 05:17:32;;;;;;;2.13;1.95;;;;;;;9.35;100.00;95862.19;5056121;28;20025;-70
2023/05/14 05:19:57;;;;;;;2.85;1.90;;;;;;;9.37;100.00;95872.59;5056998;28;20497;-70
2023/05/14 05:22:23;;;;;;;4.10;1.77;;;;;;;9.40;100.00;95880.19;5056523;28;20504;-70
2023/05/14 05:24:48;;;;;;;5.93;2.10;;;;;;;9.44;100.00;95882.44;5054333;28;20054;-70
2023/05/14 05:27:14;;;;;;;2.00;1.90;;;;;;;9.49;100.00;95876.78;5056245;28;20363;-70
2023/05/14 05:29:39;;;;;;;2.88;2.00;;;;;;;9.57;100.00;95878.75;5056401;28;20021;-70
2023/05/14 05:32:06;;;;;;;1.95;1.85;;;;;;;9.60;100.00;95887.22;5054662;28;20025;-70
2023/05/14 05:34:31;;;;;;;1.90;1.80;;;;;;;9.65;100.00;95886.84;5053588;28;20021;-70
2023/05/14 05:36:57;;;;;;;2.35;1.80;;;;;;;9.67;100.00;95891.94;5057487;28;20108;-70
2023/05/14 05:39:22;;;;;;;1.88;1.77;;;;;;;9.66;100.00;95893.75;5056401;28;20049;-70
2023/05/14 05:41:47;;;;;;;2.72;1.70;;;;;;;9.71;100.00;95898.59;5056443;28;20118;-70
2023/05/14 05:44:13;;;;;;;1.83;1.75;;;;;;;9.83;100.00;95905.44;5056446;28;20021;-70
2023/05/14 05:46:38;;;;;;;2.67;2.13;;;;;;;9.93;100.00;95902.88;5051539;28;20017;-70
2023/05/14 05:49:03;;;;;;;2.03;1.92;;;;;;;9.90;100.00;95908.38;5055251;28;20059;-70
2023/05/14 05:51:29;;;;;;;2.60;2.13;;;;;;;9.86;100.00;95899.09;5055924;28;20024;-70
2023/05/14 05:53:54;;;;;;;2.58;2.05;;;;;;;9.83;100.00;95905.44;5056561;28;20025;-70
2023/05/14 05:56:20;;;;;;;3.60;3.15;;;;;;;9.81;100.00;95903.91;5051950;28;20575;-70
2023/05/14 05:58:46;;;;;;;5.35;2.55;;;;;;;9.88;100.00;95905.06;5051843;28;20029;-70
2023/05/14 06:01:11;;;;;;;1.98;1.95;;;;;;;10.04;100.00;95902.75;5055510;28;20027;-70
2023/05/14 06:03:37;;;;;;;2.33;1.80;;;;;;;10.13;100.00;95895.84;5055744;28;20448;-70
2023/05/14 06:06:02;;;;;;;1.98;1.88;;;;;;;10.17;100.00;95901.69;5034756;28;20025;-70
2023/05/14 06:08:28;;;;;;;2.65;1.92;;;;;;;10.19;100.00;95899.75;5044644;28;20025;-70
2023/05/14 06:10:53;;;;;;;1.75;1.65;;;;;;;10.18;100.00;95904.19;5056008;28;20108;-70
2023/05/14 06:13:18;;;;;;;1.73;1.63;;;;;;;10.17;100.00;95905.16;5055474;28;20268;-70
2023/05/14 06:15:47;;;;;;;3.33;1.80;;;;;;;10.17;100.00;95902.53;5055798;28;20421;-71
2023/05/14 06:18:12;;;;;;;3.42;1.63;;;;;;;10.18;100.00;95895.47;5056281;28;20404;-70
2023/05/14 06:20:38;;;;;;;2.33;2.15;;;;;;;10.27;100.00;95896.47;5054670;28;20101;-70
2023/05/14 06:23:04;;;;;;;2.40;2.30;;;;;;;10.29;100.00;95892.72;5054481;28;20485;-70
2023/05/14 06:25:30;;;;;;;3.63;3.40;;;;;;;10.29;100.00;95882.22;5054476;28;20021;-70
2023/05/14 06:27:55;;;;;;;2.10;2.00;;;;;;;10.36;100.00;95892.19;5056092;28;20043;-70
2023/05/14 06:30:20;;;;;;;3.08;2.88;;;;;;;10.42;100.00;95892.50;5054105;28;20021;-70
2023/05/14 06:32:46;;;;;;;1.70;1.70;;;;;;;10.49;100.00;95894.59;5059697;28;20028;-70
2023/05/14 06:35:11;;;;;;;1.50;1.50;;;;;;;10.38;100.00;95900.78;5052863;28;20110;-70
2023/05/14 06:37:37;;;;;;;2.17;1.70;;;;;;;10.25;100.00;95888.69;5046171;28;20035;-70
2023/05/14 06:40:02;;;;;;;1.98;1.85;;;;;;;10.28;100.00;95885.81;5054941;28;20049;-70
2023/05/14 06:42:28;;;;;;;1.90;1.80;;;;;;;10.34;100.00;95888.84;5055167;28;20047;-70
2023/05/14 06:44:53;;;;;;;2.00;1.80;;;;;;;10.31;100.00;95877.63;5053842;28;20108;-70
2023/05/14 06:47:19;;;;;;;1.70;1.60;;;;;;;10.32;100.00;95884.56;5053827;28;20104;-70
2023/05/14 06:49:44;;;;;;;1.83;1.73;;;;;;;10.37;100.00;95891.22;5053911;28;20025;-70
2023/05/14 06:52:10;;;;;;;1.95;1.67;;;;;;;10.37;100.00;95880.69;5048361;28;20027;-69
2023/05/14 06:54:35;;;;;;;3.90;1.80;;;;;;;10.48;100.00;95880.59;5046056;28;20686;-70
2023/05/14 06:57:00;;;;;;;1.88;1.73;;;;;;;10.58;100.00;95876.16;5070607;28;20029;-70
2023/05/14 06:59:26;;;;;;;2.30;2.13;;;;;;;10.79;100.00;95883.13;5050120;28;20032;-70
2023/05/14 07:01:51;;;;;;;4.68;2.85;;;;;;;10.73;100.00;95873.97;5051498;28;20112;-70
2023/05/14 07:04:17;;;;;;;2.00;1.90;;;;;;;10.68;100.00;95873.56;5050824;28;20510;-70
2023/05/14 07:06:42;;;;;;;1.90;1.80;;;;;;;10.74;100.00;95867.72;5047323;28;20025;-70
2023/05/14 07:09:07;;;;;;;2.40;2.30;;;;;;;10.82;100.00;95867.03;5049663;28;20028;-71
2023/05/14 07:11:33;;;;;;;2.05;1.95;;;;;;;10.83;100.00;95863.44;5054833;28;20489;-71
2023/05/14 07:13:59;;;;;;;2.00;2.00;;;;;;;10.93;100.00;95852.03;5050481;28;20029;-70
2023/05/14 07:16:25;;;;;;;4.78;4.38;;;;;;;11.09;100.00;95851.50;5051128;28;20024;-71
2023/05/14 07:18:50;;;;;;;4.15;3.85;;;;;;;11.25;100.00;95848.25;5050141;28;20082;-70
2023/05/14 07:21:16;;;;;;;2.95;2.72;;;;;;;11.64;100.00;95842.88;5054063;28;20025;-70
2023/05/14 07:23:41;;;;;;;2.63;2.53;;;;;;;11.88;100.00;95834.41;5053346;28;20066;-69
2023/05/14 07:26:07;;;;;;;2.60;2.50;;;;;;;11.99;100.00;95829.94;5052808;28;20020;-70
2023/05/14 07:28:33;;;;;;;2.78;2.58;;;;;;;11.97;100.00;95822.16;5051075;28;20528;-72
2023/05/14 07:30:59;;;;;;;2.63;2.42;;;;;;;12.00;100.00;95802.56;5053824;28;20060;-73
2023/05/14 07:33:24;;;;;;;3.08;2.78;;;;;;;12.09;100.00;95806.16;5045532;28;20025;-72
2023/05/14 07:35:50;;;;;;;4.18;3.97;;;;;;;12.24;100.00;95788.81;5051524;28;20077;-74
2023/05/14 07:38:16;;;;;;;6.93;3.67;;;;;;;12.64;100.00;95788.53;5044475;28;20159;-78
2023/05/14 07:40:42;;;;;;;3.30;3.10;;;;;;;13.00;100.00;95788.47;5047625;28;20074;-75
2023/05/14 07:43:08;;;;;;;2.90;2.70;;;;;;;12.95;100.00;95782.81;5048699;28;20064;-74
2023/05/14 07:45:34;;;;;;;2.80;2.60;;;;;;;12.73;100.00;95772.59;5050480;28;20057;-71
2023/05/14 07:48:00;;;;;;;2.40;2.30;;;;;;;12.55;100.00;95766.50;5053804;28;20497;-71
2023/05/14 07:50:25;;;;;;;2.65;2.45;;;;;;;12.37;100.00;95762.03;5052824;28;20382;-70
2023/05/14 07:52:51;;;;;;;3.38;3.03;;;;;;;12.20;100.00;95755.78;5046695;28;20469;-71
2023/05/14 07:55:16;;;;;;;2.35;2.25;;;;;;;12.10;100.00;95762.97;5052735;28;20036;-69
2023/05/14 07:57:41;;;;;;;2.35;2.25;;;;;;;12.11;100.00;95751.44;5054040;28;20029;-71
2023/05/14 08:00:07;;;;;;;2.50;2.40;;;;;;;12.14;100.00;95756.41;5018931;28;20538;-72
2023/05/14 08:02:33;;;;;;;2.53;2.42;;;;;;;12.26;100.00;95749.91;5053804;28;20085;-71
2023/05/14 08:04:58;;;;;;;2.22;2.13;;;;;;;12.27;100.00;95741.03;5049892;28;20029;-71
2023/05/14 08:07:26;;;;;;;2.40;2.30;;;;;;;12.62;100.00;95749.06;5054081;28;20486;-71
2023/05/14 08:09:51;;;;;;;2.50;2.40;;;;;;;13.10;100.00;95746.91;5051611;28;20180;-72
2023/05/14 08:12:17;;;;;;;2.33;2.22;;;;;;;13.59;100.00;95737.56;5045985;28;20029;-72
2023/05/14 08:14:42;;;;;;;5.25;2.28;;;;;;;13.45;100.00;95734.56;5052629;28;20036;-72
2023/05/14 08:17:07;;;;;;;2.40;2.30;;;;;;;13.00;100.00;95722.41;5054289;28;20033;-73
2023/05/14 08:19:33;;;;;;;2.65;2.45;;;;;;;12.60;100.00;95714.06;5053869;28;20051;-71
2023/05/14 08:22:02;;;;;;;3.15;2.53;;;;;;;12.47;100.00;95719.72;5052490;28;20569;-73
2023/05/14 08:24:28;;;;;;;3.00;2.80;;;;;;;12.44;100.00;95720.03;5051794;28;20028;-72
2023/05/14 08:26:54;;;;;;;2.95;2.75;;;;;;;12.52;100.00;95716.63;5058083;28;20044;-73
2023/05/14 08:29:20;;;;;;;3.38;3.10;;;;;;;12.76;100.00;95723.91;5048164;28;20397;-72
2023/05/14 08:31:45;;;;;;;3.20;3.05;;;;;;;12.95;100.00;95730.78;5058165;28;20020;-72
2023/05/14 08:34:11;;;;;;;3.92;3.72;;;;;;;13.09;100.00;95718.00;5070374;28;20036;-72
2023/05/14 08:36:37;;;;;;;3.53;3.33;;;;;;;13.15;100.00;95720.00;5057817;28;20032;-72
2023/05/14 08:39:03;;;;;;;3.50;3.20;;;;;;;13.30;100.00;95712.31;5056681;28;20098;-71
2023/05/14 08:41:28;;;;;;;4.32;4.03;;;;;;;13.45;100.00;95718.69;5057935;28;20025;-72
2023/05/14 08:44:17;;;;;;;3.78;3.47;;;;;;;13.58;100.00;95714.75;5056580;28;20036;-72
2023/05/14 08:46:43;;;;;;;3.83;3.50;;;;;;;13.68;100.00;95704.03;5059787;28;20461;-73
2023/05/14 08:49:28;;;;;;;3.13;2.92;;;;;;;13.66;100.00;95698.94;5059857;28;20037;-74
2023/05/14 08:51:54;;;;;;;3.55;3.35;;;;;;;13.56;100.00;95696.41;5060795;28;20032;-73
2023/05/14 08:54:22;;;;;;;3.60;3.40;;;;;;;13.73;100.00;95694.63;5057386;28;20040;-77
2023/05/14 08:56:50;;;;;;;6.47;3.60;;;;;;;13.85;100.00;95695.16;5057312;28;20025;-71
2023/05/14 08:59:15;;;;;;;3.33;3.03;;;;;;;13.89;100.00;95698.31;5055939;28;20202;-72
2023/05/14 09:01:46;;;;;;;3.25;3.00;;;;;;;14.16;100.00;95689.25;5055581;28;20017;-71
2023/05/14 09:04:14;;;;;;;3.00;2.80;;;;;;;14.16;100.00;95685.78;5066709;28;20493;-72
2023/05/14 09:06:42;;;;;;;2.80;2.70;;;;;;;14.24;100.00;95683.13;5056128;28;20032;-72
2023/05/14 09:09:08;;;;;;;2.63;2.42;;;;;;;14.54;100.00;95680.81;5072174;28;20089;-72
2023/05/14 09:11:45;;;;;;;2.70;2.50;;;;;;;14.77;100.00;95669.56;5047004;28;20466;-72
2023/05/14 09:14:10;;;;;;;2.25;2.15;;;;;;;15.27;100.00;95659.63;5071716;28;20024;-72
2023/05/14 09:16:37;;;;;;;2.30;2.20;;;;;;;15.42;100.00;95657.06;5072250;28;20025;-75
2023/05/14 09:19:03;;;;;;;2.15;2.05;;;;;;;15.35;100.00;95645.47;5057398;28;20639;-78
2023/05/14 09:21:30;;;;;;;1.80;1.70;;;;;;;16.14;100.00;95646.38;5061192;28;20028;-75
2023/05/14 09:23:56;;;;;;;1.90;1.80;;;;;;;16.78;100.00;95629.19;5060429;28;20075;-73
2023/05/14 09:26:26;;;;;;;1.70;1.60;;;;;;;16.93;100.00;95620.41;5056808;28;20032;-75
2023/05/14 09:29:01;;;;;;;1.40;1.40;;;;;;;16.78;100.00;95613.25;5055021;28;20104;-74
2023/05/14 09:31:30;;;;;;;;;;;;;;;16.38;100.00;95604.66;5057137;28;20024;-74
2023/05/14 09:33:56;;;;;;;1.38;1.30;;;;;;;15.96;100.00;95604.19;5056603;28;20070;-73
2023/05/14 09:36:23;;;;;;;1.27;1.27;;;;;;;15.84;100.00;95606.41;5047308;28;20022;-74
2023/05/14 09:38:49;;;;;;;1.38;1.30;;;;;;;15.34;100.00;95606.69;5043277;28;20425;-75
2023/05/14 09:41:15;;;;;;;1.30;1.30;;;;;;;15.26;100.00;95597.00;5056884;28;20021;-74
2023/05/14 09:43:40;;;;;;;1.50;1.50;;;;;;;15.52;100.00;95600.31;5040959;28;20045;-73
2023/05/14 09:46:06;;;;;;;1.48;1.38;;;;;;;15.78;100.00;95607.94;5054409;28;20024;-73
2023/05/14 09:48:31;;;;;;;1.25;1.25;;;;;;;15.74;100.00;95604.00;5052140;28;20032;-73
2023/05/14 09:50:57;;;;;;;1.40;1.40;;;;;;;15.55;100.00;95597.31;5068991;28;20029;-72
2023/05/14 09:53:22;;;;;;;1.80;1.52;;;;;;;15.62;100.00;95592.97;5045069;28;20029;-73
2023/05/14 09:55:48;;;;;;;1.38;1.38;;;;;;;15.74;100.00;95596.84;5055744;28;20029;-72
2023/05/14 09:58:14;;;;;;;1.27;1.27;;;;;;;16.33;100.00;95598.06;5054173;28;20300;-72
2023/05/14 10:00:43;;;;;;;1.20;1.10;;;;;;;16.60;100.00;95606.44;5055621;28;20025;-72
2023/05/14 10:03:12;;;;;;;1.00;1.00;;;;;;;17.12;100.00;95595.91;5056152;28;20043;-72
2023/05/14 10:05:40;;;;;;;1.10;1.10;;;;;;;17.94;100.00;95600.31;5056117;28;20509;-73
2023/05/14 10:08:17;;;;;;;1.08;0.95;;;;;;;18.60;100.00;95575.22;5054568;28;20088;-72
2023/05/14 10:10:43;;;;;;;1.30;1.30;;;;;;;19.21;100.00;95575.56;5055476;28;20017;-73
2023/05/14 10:13:19;;;;;;;1.00;1.00;;;;;;;19.73;100.00;95566.06;5055294;28;20036;-73
2023/05/14 10:15:54;;;;;;;1.45;1.05;;;;;;;20.49;100.00;95560.59;5055847;28;20013;-74
2023/05/14 10:18:21;;;;;;;;;;;;;;;20.68;100.00;95545.53;5056973;28;20047;-73
2023/05/14 10:21:07;;;;;;;0.80;0.80;;;;;;;20.08;100.00;95550.94;5056094;28;19916;-73
2023/05/14 10:23:37;;;;;;;0.90;0.90;;;;;;;19.09;100.00;95552.13;5054404;28;20067;-74
2023/05/14 10:26:03;;;;;;;1.13;1.00;;;;;;;18.07;100.00;95555.16;5055428;28;20460;-73
2023/05/14 10:28:29;;;;;;;0.80;0.80;;;;;;;18.59;100.00;95553.06;5055772;28;20024;-73
2023/05/14 10:30:55;;;;;;;1.17;0.88;;;;;;;19.57;100.00;95547.78;5054736;28;20024;-72
2023/05/14 10:33:20;;;;;;;1.52;1.10;;;;;;;20.46;100.00;95540.41;5054554;28;20024;-73
2023/05/14 10:36:06;;;;;;;2.05;1.95;;;;;;;20.64;100.00;95525.59;5055711;28;20021;-73
2023/05/14 10:38:32;;;;;;;;;;;;;;;21.11;100.00;95532.66;5054322;28;20493;-72
2023/05/14 10:41:00;;;;;;;1.13;1.13;;;;;;;21.49;100.00;95520.31;5050362;28;19913;-72
2023/05/14 10:43:30;;;;;;;1.10;1.10;;;;;;;21.64;100.00;95518.16;5054985;28;20032;-73
2023/05/14 10:45:57;;;;;;;1.00;1.00;;;;;;;21.68;100.00;95516.72;5047644;28;20504;-73
2023/05/14 10:48:24;;;;;;;1.05;1.05;;;;;;;21.93;100.00;95507.09;5053927;28;20032;-73
2023/05/14 10:50:51;;;;;;;0.73;0.73;;;;;;;21.37;100.00;95499.59;5055227;28;20165;-72
2023/05/14 10:53:17;;;;;;;1.10;1.10;;;;;;;21.72;100.00;95504.53;5053774;28;20029;-72
2023/05/14 10:55:43;;;;;;;1.10;1.10;;;;;;;22.36;100.00;95500.09;5069929;28;20032;-72
2023/05/14 10:58:12;;;;;;;1.00;1.00;;;;;;;22.82;100.00;95487.28;5055256;28;20032;-73
2023/05/14 11:00:38;;;;;;;1.00;1.00;;;;;;;23.30;100.00;95488.34;5054736;28;20067;-73
2023/05/14 11:03:06;;;;;;;1.40;1.40;;;;;;;22.19;100.00;95489.94;5054482;28;20021;-73
2023/05/14 11:05:34;;;;;;;1.35;1.35;;;;;;;21.27;100.00;95497.38;5054999;28;20036;-72
2023/05/14 11:08:03;;;;;;;7.00;6.40;;;;;;;19.95;100.00;95499.13;5053966;28;20017;-72
2023/05/14 11:10:31;;;;;;;3.63;3.33;;;;;;;20.30;100.00;95500.75;5054780;28;20020;-72
2023/05/14 11:12:57;;;;;;;2.92;2.72;;;;;;;20.53;100.00;95494.97;5052933;28;20020;-72
2023/05/14 11:15:25;;;;;;;2.20;2.10;;;;;;;20.76;100.00;95493.66;5057875;28;20056;-72
2023/05/14 11:17:52;;;;;;;1.58;1.58;;;;;;;20.11;100.00;95491.72;5047935;28;20143;-72
2023/05/14 11:20:18;;;;;;;2.65;1.70;;;;;;;19.22;100.00;95489.97;5055101;28;20024;-72
2023/05/14 11:22:44;;;;;;;4.10;1.80;;;;;;;19.14;100.00;95485.66;5054671;28;20033;-73
2023/05/14 11:25:13;;;;;;;1.70;1.70;;;;;;;18.75;100.00;95477.25;5055020;28;20036;-72
2023/05/14 11:27:39;;;;;;;2.55;1.90;;;;;;;18.32;100.00;95494.28;5054555;28;20021;-72